createdAt,value
2022-07-25T00:01:17.949Z,5.00
2022-07-25T00:03:47.114Z,4.72
2022-07-25T00:06:17.673Z,4.97
2022-07-25T00:08:44.892Z,5.30
2022-07-25T00:11:11.566Z,5.13
2022-07-25T00:13:38.270Z,5.75
2022-07-25T00:16:05.244Z,5.32
2022-07-25T00:18:31.955Z,5.00
2022-07-25T00:20:59.108Z,5.85
2022-07-25T00:23:25.896Z,5.03
2022-07-25T00:25:52.635Z,5.93
2022-07-25T00:28:19.404Z,5.43
2022-07-25T00:30:46.558Z,5.53
2022-07-25T00:33:13.449Z,5.75
2022-07-25T00:35:40.126Z,5.20
2022-07-25T00:38:06.737Z,5.68
2022-07-25T00:40:33.591Z,5.32
2022-07-25T00:43:00.373Z,5.88
2022-07-25T00:45:27.241Z,5.70
2022-07-25T00:47:54.014Z,5.80
2022-07-25T00:50:20.738Z,5.43
2022-07-25T00:52:47.856Z,5.25
2022-07-25T00:55:14.954Z,5.25
2022-07-25T00:57:41.889Z,5.40
2022-07-25T01:00:10.238Z,5.63
2022-07-25T01:02:36.956Z,5.63
2022-07-25T01:05:04.787Z,5.50
2022-07-25T01:07:31.616Z,5.85
2022-07-25T01:09:59.176Z,5.05
2022-07-25T01:12:25.929Z,5.30
2022-07-25T01:14:52.678Z,5.43
2022-07-25T01:17:19.338Z,5.78
2022-07-25T01:19:47.237Z,5.57
2022-07-25T01:22:13.914Z,5.82
2022-07-25T01:24:40.580Z,5.70
2022-07-25T01:27:07.279Z,5.38
2022-07-25T01:29:33.947Z,5.82
2022-07-25T01:32:02.773Z,5.35
2022-07-25T01:34:29.407Z,5.60
2022-07-25T01:36:56.080Z,5.93
2022-07-25T01:39:22.704Z,5.68
2022-07-25T01:41:49.382Z,6.07
2022-07-25T01:44:17.261Z,5.97
2022-07-25T01:46:44.033Z,6.10
2022-07-25T01:49:10.814Z,5.82
2022-07-25T01:51:37.455Z,6.13
2022-07-25T01:54:04.600Z,6.10
2022-07-25T01:56:35.737Z,5.97
2022-07-25T01:59:02.658Z,6.05
2022-07-25T02:01:29.441Z,6.55
2022-07-25T02:03:56.203Z,6.18
2022-07-25T02:06:22.936Z,7.13
2022-07-25T02:08:49.890Z,6.20
2022-07-25T02:11:16.709Z,6.38
2022-07-25T02:13:43.418Z,6.07
2022-07-25T02:16:10.221Z,6.68
2022-07-25T02:18:36.862Z,6.75
2022-07-25T02:21:07.191Z,6.63
2022-07-25T02:23:41.620Z,6.72
2022-07-25T02:26:08.296Z,6.95
2022-07-25T02:28:35.007Z,7.10
2022-07-25T02:31:01.794Z,6.93
2022-07-25T02:33:28.850Z,7.22
2022-07-25T02:35:55.865Z,7.07
2022-07-25T02:38:22.635Z,7.45
2022-07-25T02:40:50.169Z,7.30
2022-07-25T02:43:17.153Z,8.50
2022-07-25T02:45:43.820Z,7.72
2022-07-25T02:48:10.665Z,7.20
2022-07-25T02:50:37.362Z,7.97
2022-07-25T02:53:04.767Z,8.02
2022-07-25T02:55:31.881Z,8.43
2022-07-25T02:57:58.670Z,8.00
2022-07-25T03:00:25.422Z,8.40
2022-07-25T03:02:52.090Z,7.78
2022-07-25T03:05:19.185Z,8.10
2022-07-25T03:07:46.223Z,7.90
2022-07-25T03:10:13.952Z,8.20
2022-07-25T03:12:41.413Z,8.57
2022-07-25T03:15:08.710Z,8.52
2022-07-25T03:17:35.385Z,8.25
2022-07-25T03:20:02.085Z,8.05
2022-07-25T03:22:28.763Z,7.75
2022-07-25T03:24:55.362Z,8.30
2022-07-25T03:27:22.207Z,8.30
2022-07-25T03:29:48.882Z,8.18
2022-07-25T03:32:15.573Z,8.02
2022-07-25T03:34:42.287Z,8.30
2022-07-25T03:37:08.881Z,8.68
2022-07-25T03:39:35.752Z,8.88
2022-07-25T03:42:02.414Z,8.48
2022-07-25T03:44:29.075Z,7.90
2022-07-25T03:46:55.737Z,8.48
2022-07-25T03:49:22.365Z,8.43
2022-07-25T03:51:49.001Z,8.85
2022-07-25T03:54:15.744Z,8.68
2022-07-25T03:56:46.477Z,8.07
2022-07-25T03:59:14.444Z,8.50
2022-07-25T04:01:41.199Z,8.55
2022-07-25T04:04:08.481Z,7.90
2022-07-25T04:06:35.388Z,8.13
2022-07-25T04:09:02.162Z,8.27
2022-07-25T04:11:30.852Z,8.38
2022-07-25T04:13:58.402Z,8.73
2022-07-25T04:16:25.118Z,8.02
2022-07-25T04:18:55.272Z,7.97
2022-07-25T04:21:23.100Z,8.57
2022-07-25T04:23:49.786Z,8.07
2022-07-25T04:26:16.584Z,8.27
2022-07-25T04:28:43.242Z,8.20
2022-07-25T04:31:09.919Z,8.52
2022-07-25T04:33:37.211Z,7.95
2022-07-25T04:36:04.057Z,8.38
2022-07-25T04:38:30.752Z,8.13
2022-07-25T04:40:57.441Z,8.18
2022-07-25T04:43:24.228Z,8.40
2022-07-25T04:45:51.025Z,7.85
2022-07-25T04:48:17.675Z,7.50
2022-07-25T04:50:44.300Z,7.82
2022-07-25T04:53:11.010Z,8.23
2022-07-25T04:55:38.884Z,8.10
2022-07-25T04:58:05.939Z,8.52
2022-07-25T05:00:32.859Z,8.23
2022-07-25T05:02:59.593Z,8.50
2022-07-25T05:05:26.377Z,8.45
2022-07-25T05:07:57.125Z,8.27
2022-07-25T05:10:24.223Z,8.65
2022-07-25T05:12:50.949Z,8.88
2022-07-25T05:15:17.562Z,8.40
2022-07-25T05:17:44.356Z,8.43
2022-07-25T05:20:11.650Z,7.95
2022-07-25T05:22:38.276Z,8.80
2022-07-25T05:25:08.681Z,8.35
2022-07-25T05:27:35.560Z,8.68
2022-07-25T05:30:02.187Z,8.68
2022-07-25T05:32:28.835Z,9.10
2022-07-25T05:34:55.474Z,8.25
2022-07-25T05:37:22.069Z,8.20
2022-07-25T05:39:48.755Z,8.25
2022-07-25T05:42:15.371Z,8.80
2022-07-25T05:44:42.026Z,9.05
2022-07-25T05:47:09.521Z,8.52
2022-07-25T05:49:36.350Z,8.70
2022-07-25T05:52:03.381Z,9.18
2022-07-25T05:54:37.719Z,9.88
2022-07-25T05:57:04.434Z,9.45
2022-07-25T05:59:31.107Z,9.95
2022-07-25T06:01:57.983Z,10.00
2022-07-25T06:04:27.523Z,9.88
2022-07-25T06:06:54.222Z,9.35
2022-07-25T06:09:21.802Z,9.98
2022-07-25T06:11:54.493Z,10.00
2022-07-25T06:14:26.794Z,9.10
2022-07-25T06:16:54.148Z,10.63
2022-07-25T06:19:20.776Z,9.85
2022-07-25T06:21:47.414Z,10.20
2022-07-25T06:24:14.016Z,9.45
2022-07-25T06:26:40.649Z,9.70
2022-07-25T06:29:07.410Z,10.27
2022-07-25T06:31:34.081Z,10.10
2022-07-25T06:34:00.819Z,9.98
2022-07-25T06:36:32.216Z,9.88
2022-07-25T06:38:59.873Z,9.65
2022-07-25T06:41:26.503Z,10.10
2022-07-25T06:43:53.167Z,10.15
2022-07-25T06:46:19.899Z,10.60
2022-07-25T06:48:46.905Z,10.40
2022-07-25T06:51:15.997Z,10.50
2022-07-25T06:53:42.698Z,10.23
2022-07-25T06:56:10.538Z,10.68
2022-07-25T06:58:39.944Z,10.30
2022-07-25T07:01:07.092Z,10.40
2022-07-25T07:03:38.227Z,10.82
2022-07-25T07:06:05.908Z,10.55
2022-07-25T07:08:32.499Z,11.00
2022-07-25T07:10:59.123Z,10.70
2022-07-25T07:13:25.866Z,10.65
2022-07-25T07:15:52.916Z,10.40
2022-07-25T07:18:20.205Z,10.40
2022-07-25T07:20:47.358Z,10.60
2022-07-25T07:23:14.962Z,11.38
2022-07-25T07:25:44.029Z,11.65
2022-07-25T07:28:10.947Z,11.02
2022-07-25T07:31:13.450Z,12.15
2022-07-25T07:33:24.365Z,11.85
2022-07-25T07:35:51.622Z,11.63
2022-07-25T07:38:18.378Z,11.30
2022-07-25T07:40:45.075Z,11.88
2022-07-25T07:43:11.787Z,11.15
2022-07-25T07:45:38.529Z,12.15
2022-07-25T07:48:06.265Z,11.90
2022-07-25T07:50:32.958Z,10.77
2022-07-25T07:52:59.676Z,11.15
2022-07-25T07:55:44.441Z,11.75
2022-07-25T07:58:16.017Z,10.50
2022-07-25T08:00:43.935Z,11.60
2022-07-25T08:03:10.937Z,10.52
2022-07-25T08:05:39.284Z,11.07
2022-07-25T08:08:06.757Z,11.93
2022-07-25T08:10:36.385Z,11.98
2022-07-25T08:13:04.150Z,11.15
2022-07-25T08:15:30.900Z,11.57
2022-07-25T08:17:57.624Z,12.13
2022-07-25T08:20:39.700Z,11.15
2022-07-25T08:23:06.743Z,12.10
2022-07-25T08:25:37.006Z,11.23
2022-07-25T08:28:04.278Z,11.88
2022-07-25T08:30:31.177Z,11.70
2022-07-25T08:33:05.326Z,12.30
2022-07-25T08:35:32.552Z,11.93
2022-07-25T08:38:00.308Z,12.68
2022-07-25T08:40:28.161Z,12.70
2022-07-25T08:42:55.152Z,12.52
2022-07-25T08:45:22.134Z,13.10
2022-07-25T08:47:50.512Z,13.05
2022-07-25T08:50:18.388Z,13.68
2022-07-25T08:52:47.532Z,12.60
2022-07-25T08:55:16.843Z,13.35
2022-07-25T08:57:44.045Z,13.05
2022-07-25T09:00:14.076Z,13.25
2022-07-25T09:02:41.264Z,11.75
2022-07-25T09:05:08.729Z,13.15
2022-07-25T09:07:41.740Z,14.25
2022-07-25T09:10:19.144Z,13.55
2022-07-25T09:12:53.427Z,13.80
2022-07-25T09:15:30.652Z,12.80
2022-07-25T09:17:58.405Z,12.60
2022-07-25T09:20:39.509Z,12.88
2022-07-25T09:23:06.582Z,12.65
2022-07-25T09:25:33.425Z,11.38
2022-07-25T09:28:16.463Z,12.45
2022-07-25T09:30:56.387Z,12.80
2022-07-25T09:33:23.911Z,12.68
2022-07-25T09:35:51.009Z,12.60
2022-07-25T09:38:18.289Z,12.27
2022-07-25T09:41:01.752Z,11.70
2022-07-25T09:43:42.144Z,12.00
2022-07-25T09:46:09.510Z,11.20
2022-07-25T09:48:36.769Z,12.00
2022-07-25T09:51:03.982Z,11.77
2022-07-25T09:53:30.662Z,12.25
2022-07-25T09:55:57.605Z,12.43
2022-07-25T09:58:24.667Z,12.00
2022-07-25T10:00:54.041Z,12.40
2022-07-25T10:03:38.845Z,12.05
2022-07-25T10:06:14.456Z,11.95
2022-07-25T10:08:41.512Z,11.80
2022-07-25T10:11:24.550Z,11.93
2022-07-25T10:13:52.797Z,11.68
2022-07-25T10:16:20.662Z,11.75
2022-07-25T10:18:49.659Z,11.00
2022-07-25T10:21:26.874Z,10.48
2022-07-25T10:24:13.295Z,11.85
2022-07-25T10:26:51.028Z,11.48
2022-07-25T10:29:17.739Z,12.27
2022-07-25T10:31:50.404Z,11.20
2022-07-25T10:34:27.776Z,11.10
2022-07-25T10:36:57.352Z,11.50
2022-07-25T10:39:24.205Z,10.80
2022-07-25T10:42:05.096Z,10.20
2022-07-25T10:44:45.140Z,9.68
2022-07-25T10:47:12.931Z,9.27
2022-07-25T10:50:00.047Z,8.43
2022-07-25T10:52:28.135Z,7.03
2022-07-25T10:54:55.721Z,6.32
2022-07-25T10:57:22.615Z,6.25
2022-07-25T10:59:49.599Z,6.70
2022-07-25T11:02:16.672Z,6.80
2022-07-25T11:05:02.592Z,6.45
2022-07-25T11:07:35.907Z,6.55
2022-07-25T11:10:04.406Z,6.18
2022-07-25T11:12:31.611Z,6.35
2022-07-25T11:15:02.593Z,6.13
2022-07-25T11:17:29.862Z,6.13
2022-07-25T11:19:59.695Z,6.50
2022-07-25T11:22:26.941Z,5.88
2022-07-25T11:24:54.256Z,6.45
2022-07-25T11:27:22.280Z,5.88
2022-07-25T11:29:49.221Z,6.07
2022-07-25T11:32:16.072Z,5.95
2022-07-25T11:34:44.269Z,5.43
2022-07-25T11:37:11.850Z,5.97
2022-07-25T11:39:40.122Z,5.68
2022-07-25T11:42:11.100Z,5.28
2022-07-25T11:44:39.648Z,5.68
2022-07-25T11:47:08.729Z,5.15
2022-07-25T11:49:44.482Z,5.47
2022-07-25T11:52:30.251Z,5.88
2022-07-25T11:54:58.857Z,5.45
2022-07-25T11:57:26.465Z,6.15
2022-07-25T11:59:53.762Z,5.28
2022-07-25T12:02:24.634Z,5.80
2022-07-25T12:05:00.151Z,5.30
2022-07-25T12:07:37.176Z,5.78
2022-07-25T12:10:04.293Z,5.63
2022-07-25T12:12:41.042Z,5.38
2022-07-25T12:15:09.289Z,5.30
2022-07-25T12:17:35.924Z,5.32
2022-07-25T12:20:03.005Z,6.13
2022-07-25T12:22:31.566Z,5.70
2022-07-25T12:24:58.259Z,5.13
2022-07-25T12:27:25.816Z,5.20
2022-07-25T12:29:52.782Z,5.43
2022-07-25T12:32:19.422Z,5.40
2022-07-25T12:34:46.565Z,5.57
2022-07-25T12:37:13.217Z,4.90
2022-07-25T12:39:39.861Z,5.30
2022-07-25T12:42:06.680Z,5.18
2022-07-25T12:44:33.325Z,5.78
2022-07-25T12:46:59.969Z,5.00
2022-07-25T12:49:26.570Z,5.38
2022-07-25T12:51:57.896Z,6.00
2022-07-25T12:54:24.868Z,5.45
2022-07-25T12:56:51.775Z,5.90
2022-07-25T12:59:18.509Z,5.47
2022-07-25T13:01:45.368Z,5.82
2022-07-25T13:04:12.101Z,5.50
2022-07-25T13:06:39.137Z,5.90
2022-07-25T13:09:06.554Z,5.18
2022-07-25T13:11:33.514Z,5.78
2022-07-25T13:14:00.314Z,5.53
2022-07-25T13:16:27.164Z,5.45
2022-07-25T13:18:53.897Z,5.60
2022-07-25T13:21:21.531Z,5.85
2022-07-25T13:23:48.279Z,5.63
2022-07-25T13:26:16.094Z,5.60
2022-07-25T13:28:42.762Z,5.60
2022-07-25T13:31:10.115Z,5.50
2022-07-25T13:33:37.173Z,5.53
2022-07-25T13:36:04.078Z,6.38
2022-07-25T13:38:30.749Z,5.55
2022-07-25T13:40:59.104Z,6.13
2022-07-25T13:43:25.884Z,6.00
2022-07-25T13:45:52.718Z,5.75
2022-07-25T13:48:29.677Z,6.07
2022-07-25T13:50:57.901Z,5.63
2022-07-25T13:53:29.703Z,5.53
2022-07-25T13:55:58.333Z,5.53
2022-07-25T13:58:25.488Z,5.68
2022-07-25T14:00:52.231Z,5.80
2022-07-25T14:03:19.060Z,5.28
2022-07-25T14:05:45.745Z,6.05
2022-07-25T14:08:12.533Z,5.57
2022-07-25T14:10:39.171Z,5.90
2022-07-25T14:13:05.956Z,5.72
2022-07-25T14:15:32.737Z,5.40
2022-07-25T14:17:59.394Z,5.65
2022-07-25T14:20:26.098Z,5.50
2022-07-25T14:22:52.847Z,6.05
2022-07-25T14:25:19.589Z,5.38
2022-07-25T14:27:46.283Z,5.60
2022-07-25T14:30:13.343Z,5.75
2022-07-25T14:32:40.022Z,6.18
2022-07-25T14:35:07.060Z,6.00
2022-07-25T14:37:33.977Z,6.30
2022-07-25T14:40:01.821Z,5.35
2022-07-25T14:42:28.778Z,5.97
2022-07-25T14:44:55.473Z,5.45
2022-07-25T14:47:22.387Z,5.85
2022-07-25T14:49:49.673Z,5.93
2022-07-25T14:52:16.537Z,5.95
2022-07-25T14:54:43.225Z,5.70
2022-07-25T14:57:09.980Z,6.13
2022-07-25T14:59:36.980Z,5.63
2022-07-25T15:02:03.873Z,6.30
2022-07-25T15:04:30.656Z,5.72
2022-07-25T15:06:57.433Z,5.75
2022-07-25T15:09:24.390Z,5.32
2022-07-25T15:11:51.070Z,5.55
2022-07-25T15:14:17.792Z,5.30
2022-07-25T15:16:44.605Z,5.97
2022-07-25T15:19:16.476Z,5.65
2022-07-25T15:21:44.302Z,5.78
2022-07-25T15:24:10.979Z,5.55
2022-07-25T15:26:37.722Z,5.47
2022-07-25T15:29:07.111Z,5.72
2022-07-25T15:31:34.214Z,6.07
2022-07-25T15:34:00.944Z,6.40
2022-07-25T15:36:29.688Z,6.03
2022-07-25T15:38:56.633Z,6.07
2022-07-25T15:41:23.443Z,6.53
2022-07-25T15:43:50.120Z,5.80
2022-07-25T15:46:17.157Z,6.10
2022-07-25T15:48:44.661Z,5.82
2022-07-25T15:51:11.413Z,6.18
2022-07-25T15:53:38.013Z,6.10
2022-07-25T15:56:04.861Z,5.28
2022-07-25T15:58:31.660Z,5.75
2022-07-25T16:00:58.495Z,5.60
2022-07-25T16:03:25.226Z,5.78
2022-07-25T16:05:53.909Z,5.95
2022-07-25T16:08:20.546Z,7.18
2022-07-25T16:10:47.258Z,7.00
2022-07-25T16:13:13.956Z,5.75
2022-07-25T16:15:40.731Z,5.43
2022-07-25T16:18:07.435Z,6.15
2022-07-25T16:20:34.270Z,7.10
2022-07-25T16:23:01.167Z,14.65
2022-07-25T16:25:28.303Z,14.50
2022-07-25T16:27:55.444Z,7.13
2022-07-25T16:30:22.207Z,7.60
2022-07-25T16:32:48.921Z,8.20
2022-07-25T16:35:15.578Z,5.45
2022-07-25T16:37:42.539Z,6.90
2022-07-25T16:40:09.608Z,6.72
2022-07-25T16:42:36.476Z,5.95
2022-07-25T16:45:03.227Z,5.85
2022-07-25T16:47:29.955Z,5.55
2022-07-25T16:49:56.925Z,5.15
2022-07-25T16:52:24.115Z,5.45
2022-07-25T16:54:50.732Z,5.45
2022-07-25T16:57:17.448Z,5.40
2022-07-25T16:59:44.227Z,5.38
2022-07-25T17:02:10.986Z,5.25
2022-07-25T17:04:37.928Z,4.68
2022-07-25T17:07:04.670Z,4.63
2022-07-25T17:09:32.058Z,4.78
2022-07-25T17:11:58.738Z,5.20
2022-07-25T17:14:30.072Z,4.97
2022-07-25T17:16:57.481Z,5.00
2022-07-25T17:19:24.218Z,4.72
2022-07-25T17:21:50.906Z,5.72
2022-07-25T17:24:17.649Z,5.55
2022-07-25T17:26:44.384Z,4.55
2022-07-25T17:29:11.375Z,5.00
2022-07-25T17:31:38.227Z,4.50
2022-07-25T17:34:04.980Z,5.00
2022-07-25T17:36:31.710Z,4.82
2022-07-25T17:38:58.406Z,4.30
2022-07-25T17:41:25.120Z,4.63
2022-07-25T17:43:51.828Z,4.20
2022-07-25T17:46:18.588Z,4.53
2022-07-25T17:48:46.453Z,5.20
2022-07-25T17:51:13.241Z,5.50
2022-07-25T17:53:39.913Z,5.18
2022-07-25T17:56:08.422Z,5.97
2022-07-25T17:58:35.143Z,5.80
2022-07-25T18:01:03.904Z,4.68
2022-07-25T18:03:32.573Z,5.47
2022-07-25T18:05:59.318Z,5.05
2022-07-25T18:08:26.033Z,5.57
2022-07-25T18:10:52.654Z,5.43
2022-07-25T18:13:19.559Z,8.27
2022-07-25T18:15:46.667Z,6.55
2022-07-25T18:18:16.939Z,7.22
2022-07-25T18:20:47.069Z,5.80
2022-07-25T18:23:13.840Z,5.45
2022-07-25T18:25:40.503Z,6.10
2022-07-25T18:28:07.300Z,5.82
2022-07-25T18:30:33.970Z,5.93
2022-07-25T18:33:00.637Z,6.68
2022-07-25T18:35:27.279Z,5.53
2022-07-25T18:37:53.984Z,5.80
2022-07-25T18:40:20.921Z,6.78
2022-07-25T18:42:47.791Z,5.03
2022-07-25T18:45:14.614Z,6.68
2022-07-25T18:47:41.373Z,4.90
2022-07-25T18:50:08.314Z,4.78
2022-07-25T18:52:36.089Z,4.60
2022-07-25T18:55:04.473Z,4.55
2022-07-25T18:57:31.302Z,5.25
2022-07-25T19:00:02.581Z,5.13
2022-07-25T19:02:29.976Z,5.22
2022-07-25T19:04:56.740Z,5.15
2022-07-25T19:07:23.566Z,4.75
2022-07-25T19:09:50.274Z,4.82
2022-07-25T19:12:16.975Z,5.03
2022-07-25T19:14:44.105Z,4.75
2022-07-25T19:17:10.838Z,4.72
2022-07-25T19:19:37.666Z,4.80
2022-07-25T19:22:04.408Z,4.63
2022-07-25T19:24:31.418Z,4.75
2022-07-25T19:26:58.938Z,5.05
2022-07-25T19:29:26.806Z,4.68
2022-07-25T19:31:53.713Z,4.07
2022-07-25T19:34:20.561Z,4.40
2022-07-25T19:36:47.317Z,4.40
2022-07-25T19:39:14.222Z,4.55
2022-07-25T19:41:46.430Z,4.30
2022-07-25T19:44:13.753Z,4.38
2022-07-25T19:46:40.775Z,4.18
2022-07-25T19:49:07.991Z,4.78
2022-07-25T19:51:36.660Z,4.32
2022-07-25T19:54:03.864Z,4.47
2022-07-25T19:56:31.069Z,4.35
2022-07-25T19:58:58.209Z,4.57
2022-07-25T20:01:25.033Z,4.53
2022-07-25T20:03:51.884Z,4.43
2022-07-25T20:06:20.634Z,4.70
2022-07-25T20:08:47.763Z,3.88
2022-07-25T20:11:15.368Z,4.45
2022-07-25T20:13:42.072Z,4.63
2022-07-25T20:16:08.858Z,4.63
2022-07-25T20:18:35.505Z,4.38
2022-07-25T20:21:02.272Z,4.72
2022-07-25T20:23:28.952Z,4.65
2022-07-25T20:25:55.718Z,4.60
2022-07-25T20:28:22.383Z,4.47
2022-07-25T20:30:50.155Z,4.40
2022-07-25T20:33:17.490Z,4.18
2022-07-25T20:35:44.157Z,4.10
2022-07-25T20:38:10.834Z,3.72
2022-07-25T20:40:49.333Z,4.00
2022-07-25T20:43:16.753Z,4.32
2022-07-25T20:45:43.567Z,4.22
2022-07-25T20:48:10.422Z,3.92
2022-07-25T20:50:37.431Z,4.15
2022-07-25T20:53:04.617Z,3.80
2022-07-25T20:55:31.426Z,4.22
2022-07-25T20:57:58.278Z,3.80
2022-07-25T21:00:27.426Z,3.85
2022-07-25T21:02:54.681Z,4.03
2022-07-25T21:05:21.720Z,3.72
2022-07-25T21:07:48.546Z,4.43
2022-07-25T21:10:15.227Z,3.85
2022-07-25T21:12:41.941Z,3.95
2022-07-25T21:15:09.035Z,4.10
2022-07-25T21:17:35.736Z,3.83
2022-07-25T21:20:02.893Z,4.03
2022-07-25T21:22:29.560Z,4.15
2022-07-25T21:24:56.240Z,4.25
2022-07-25T21:27:22.888Z,4.57
2022-07-25T21:29:49.562Z,3.78
2022-07-25T21:32:17.417Z,4.10
2022-07-25T21:34:45.628Z,4.20
2022-07-25T21:37:13.224Z,4.32
2022-07-25T21:39:39.866Z,4.25
2022-07-25T21:42:09.864Z,4.18
2022-07-25T21:44:38.114Z,4.07
2022-07-25T21:47:04.938Z,4.07
2022-07-25T21:49:50.265Z,4.20
2022-07-25T21:52:17.292Z,4.25
2022-07-25T21:54:44.633Z,4.70
2022-07-25T21:57:13.396Z,4.53
2022-07-25T21:59:44.403Z,3.58
2022-07-25T22:02:11.245Z,4.32
2022-07-25T22:04:38.000Z,3.95
2022-07-25T22:07:04.964Z,4.55
2022-07-25T22:09:31.655Z,3.72
2022-07-25T22:11:58.882Z,3.78
2022-07-25T22:14:25.757Z,3.33
2022-07-25T22:16:52.579Z,3.65
2022-07-25T22:19:22.309Z,3.67
2022-07-25T22:21:50.033Z,4.30
2022-07-25T22:24:16.829Z,3.75
2022-07-25T22:26:43.617Z,4.05
2022-07-25T22:29:10.976Z,3.58
2022-07-25T22:31:41.131Z,3.92
2022-07-25T22:34:07.853Z,4.05
2022-07-25T22:36:34.500Z,3.35
2022-07-25T22:39:01.251Z,3.85
2022-07-25T22:41:27.945Z,4.40
2022-07-25T22:43:58.637Z,3.40
2022-07-25T22:46:26.504Z,3.53
2022-07-25T22:48:53.446Z,3.00
2022-07-25T22:51:20.243Z,3.80
2022-07-25T22:53:46.899Z,3.45
2022-07-25T22:56:13.590Z,3.22
2022-07-25T22:58:40.248Z,3.10
2022-07-25T23:01:06.960Z,2.42
2022-07-25T23:03:34.722Z,2.85
2022-07-25T23:06:01.448Z,3.05
2022-07-25T23:08:28.345Z,2.60
2022-07-25T23:10:55.098Z,2.90
2022-07-25T23:13:21.815Z,2.00
2022-07-25T23:15:50.143Z,2.80
2022-07-25T23:18:18.466Z,2.50
2022-07-25T23:20:45.149Z,2.60
2022-07-25T23:23:11.877Z,2.35
2022-07-25T23:25:38.510Z,2.60
2022-07-25T23:28:05.331Z,2.60
2022-07-25T23:30:36.569Z,2.67
2022-07-25T23:33:06.702Z,2.65
2022-07-25T23:35:33.495Z,2.85
2022-07-25T23:38:00.204Z,2.50
2022-07-25T23:40:27.196Z,2.60
2022-07-25T23:42:54.503Z,2.55
2022-07-25T23:45:21.714Z,2.25
2022-07-25T23:47:49.715Z,2.60
2022-07-25T23:50:16.490Z,2.75
2022-07-25T23:52:43.131Z,2.00
2022-07-25T23:55:10.039Z,2.10
2022-07-25T23:57:36.732Z,2.28
